Terminal Aerodrome Forecast
Issued by NWS Jacksonville, FL

Home | Current Version | Previous Version | Text Only | Print | Product List | Glossary On
Versions: 1 2 3 4 5 6 7 8 9 10 11 12 13 14 15 16
132
FTUS42 KJAX 240545
TAFGNV
TAF
KGNV 240545Z 2406/2506 04003KT P6SM SKC
      TEMPO 2408/2412 3SM BR
     FM241300 08008KT P6SM FEW040 SCT060
     FM241500 10012G20KT P6SM SCT045 BKN060
     FM250000 08007KT P6SM FEW040 SCT060 SCT250=

USA.gov is the U.S. government's official web portal to all federal, state and local government web resources and services.